sensor_id;sensor_type;location;lat;lon;timestamp;P1;durP1;ratioP1;P2;durP2;ratioP2
57317;SDS011;43157;50.982;18.132;2022-12-18T00:01:58;69.70;;;20.20;;
57317;SDS011;43157;50.982;18.132;2022-12-18T00:04:27;54.40;;;17.50;;
57317;SDS011;43157;50.982;18.132;2022-12-18T00:06:53;71.60;;;19.40;;
57317;SDS011;43157;50.982;18.132;2022-12-18T00:09:19;71.60;;;20.20;;
57317;SDS011;43157;50.982;18.132;2022-12-18T00:11:45;58.70;;;15.60;;
57317;SDS011;43157;50.982;18.132;2022-12-18T00:14:12;71.90;;;20.60;;
57317;SDS011;43157;50.982;18.132;2022-12-18T00:16:38;93.50;;;24.50;;
57317;SDS011;43157;50.982;18.132;2022-12-18T00:19:04;89.20;;;24.00;;
57317;SDS011;43157;50.982;18.132;2022-12-18T00:21:31;59.40;;;16.10;;
57317;SDS011;43157;50.982;18.132;2022-12-18T00:23:57;66.00;;;16.10;;
57317;SDS011;43157;50.982;18.132;2022-12-18T00:26:24;52.20;;;16.40;;
57317;SDS011;43157;50.982;18.132;2022-12-18T00:28:50;51.40;;;14.60;;
57317;SDS011;43157;50.982;18.132;2022-12-18T00:31:18;52.50;;;16.20;;
57317;SDS011;43157;50.982;18.132;2022-12-18T00:33:44;49.00;;;17.00;;
57317;SDS011;43157;50.982;18.132;2022-12-18T00:36:12;67.50;;;18.80;;
57317;SDS011;43157;50.982;18.132;2022-12-18T00:38:38;51.70;;;16.50;;
57317;SDS011;43157;50.982;18.132;2022-12-18T00:41:06;53.80;;;15.00;;
57317;SDS011;43157;50.982;18.132;2022-12-18T00:43:32;55.10;;;15.60;;
57317;SDS011;43157;50.982;18.132;2022-12-18T00:45:58;55.40;;;16.30;;
57317;SDS011;43157;50.982;18.132;2022-12-18T00:48:24;66.10;;;18.30;;
57317;SDS011;43157;50.982;18.132;2022-12-18T00:50:50;50.10;;;15.20;;
57317;SDS011;43157;50.982;18.132;2022-12-18T00:53:16;52.40;;;15.20;;
57317;SDS011;43157;50.982;18.132;2022-12-18T00:55:42;56.30;;;17.00;;
57317;SDS011;43157;50.982;18.132;2022-12-18T00:58:09;57.30;;;15.00;;
57317;SDS011;43157;50.982;18.132;2022-12-18T01:00:35;53.50;;;15.80;;
57317;SDS011;43157;50.982;18.132;2022-12-18T01:03:01;72.50;;;20.30;;
57317;SDS011;43157;50.982;18.132;2022-12-18T01:05:27;57.40;;;16.70;;
57317;SDS011;43157;50.982;18.132;2022-12-18T01:07:54;47.80;;;12.60;;
57317;SDS011;43157;50.982;18.132;2022-12-18T01:10:20;56.00;;;16.70;;
57317;SDS011;43157;50.982;18.132;2022-12-18T01:12:46;54.10;;;15.60;;
57317;SDS011;43157;50.982;18.132;2022-12-18T01:15:12;44.70;;;16.10;;
57317;SDS011;43157;50.982;18.132;2022-12-18T01:17:39;52.60;;;12.70;;
57317;SDS011;43157;50.982;18.132;2022-12-18T01:20:05;65.40;;;18.00;;
57317;SDS011;43157;50.982;18.132;2022-12-18T01:22:31;62.40;;;18.00;;
57317;SDS011;43157;50.982;18.132;2022-12-18T01:24:58;45.80;;;13.60;;
57317;SDS011;43157;50.982;18.132;2022-12-18T01:27:24;53.30;;;17.60;;
57317;SDS011;43157;50.982;18.132;2022-12-18T01:29:50;60.40;;;16.90;;
57317;SDS011;43157;50.982;18.132;2022-12-18T01:32:16;51.60;;;15.70;;
57317;SDS011;43157;50.982;18.132;2022-12-18T01:34:42;54.20;;;15.90;;
57317;SDS011;43157;50.982;18.132;2022-12-18T01:37:08;56.80;;;16.50;;
57317;SDS011;43157;50.982;18.132;2022-12-18T01:39:36;60.90;;;17.80;;
57317;SDS011;43157;50.982;18.132;2022-12-18T01:42:05;54.40;;;16.30;;
57317;SDS011;43157;50.982;18.132;2022-12-18T01:50:32;53.00;;;14.30;;
57317;SDS011;43157;50.982;18.132;2022-12-18T01:53:17;47.00;;;14.60;;
57317;SDS011;43157;50.982;18.132;2022-12-18T01:55:48;57.60;;;16.40;;
57317;SDS011;43157;50.982;18.132;2022-12-18T01:58:15;46.00;;;14.10;;
57317;SDS011;43157;50.982;18.132;2022-12-18T02:00:41;50.60;;;14.70;;
57317;SDS011;43157;50.982;18.132;2022-12-18T02:03:07;48.40;;;12.50;;
57317;SDS011;43157;50.982;18.132;2022-12-18T02:05:47;53.10;;;15.40;;
57317;SDS011;43157;50.982;18.132;2022-12-18T02:08:34;54.00;;;14.50;;
57317;SDS011;43157;50.982;18.132;2022-12-18T02:11:05;49.00;;;13.60;;
57317;SDS011;43157;50.982;18.132;2022-12-18T02:13:36;61.70;;;16.20;;
57317;SDS011;43157;50.982;18.132;2022-12-18T02:18:41;56.40;;;15.50;;
57317;SDS011;43157;50.982;18.132;2022-12-18T02:21:29;31.90;;;9.60;;
57317;SDS011;43157;50.982;18.132;2022-12-18T02:24:03;58.60;;;17.10;;
57317;SDS011;43157;50.982;18.132;2022-12-18T02:26:36;55.80;;;17.60;;
57317;SDS011;43157;50.982;18.132;2022-12-18T02:29:05;46.40;;;14.70;;
57317;SDS011;43157;50.982;18.132;2022-12-18T02:31:35;52.60;;;13.40;;
57317;SDS011;43157;50.982;18.132;2022-12-18T02:34:02;58.10;;;14.50;;
57317;SDS011;43157;50.982;18.132;2022-12-18T02:36:29;44.20;;;14.10;;
57317;SDS011;43157;50.982;18.132;2022-12-18T02:38:56;47.40;;;13.60;;
57317;SDS011;43157;50.982;18.132;2022-12-18T02:41:24;48.90;;;13.80;;
57317;SDS011;43157;50.982;18.132;2022-12-18T02:43:57;48.80;;;13.70;;
57317;SDS011;43157;50.982;18.132;2022-12-18T02:46:25;50.30;;;14.90;;
57317;SDS011;43157;50.982;18.132;2022-12-18T02:48:53;53.40;;;17.10;;
57317;SDS011;43157;50.982;18.132;2022-12-18T02:54:20;43.60;;;11.80;;
57317;SDS011;43157;50.982;18.132;2022-12-18T02:56:51;50.50;;;12.30;;
57317;SDS011;43157;50.982;18.132;2022-12-18T02:59:30;44.40;;;14.30;;
57317;SDS011;43157;50.982;18.132;2022-12-18T03:02:11;35.10;;;9.60;;
57317;SDS011;43157;50.982;18.132;2022-12-18T03:07:08;44.80;;;13.00;;
57317;SDS011;43157;50.982;18.132;2022-12-18T03:09:35;38.00;;;10.90;;
57317;SDS011;43157;50.982;18.132;2022-12-18T03:12:15;46.10;;;11.40;;
57317;SDS011;43157;50.982;18.132;2022-12-18T03:15:10;46.00;;;13.00;;
57317;SDS011;43157;50.982;18.132;2022-12-18T03:17:35;48.20;;;14.20;;
57317;SDS011;43157;50.982;18.132;2022-12-18T03:20:12;49.00;;;13.90;;
57317;SDS011;43157;50.982;18.132;2022-12-18T03:22:38;51.30;;;14.30;;
57317;SDS011;43157;50.982;18.132;2022-12-18T03:25:05;49.90;;;15.70;;
57317;SDS011;43157;50.982;18.132;2022-12-18T03:27:31;40.40;;;11.90;;
57317;SDS011;43157;50.982;18.132;2022-12-18T03:32:30;56.50;;;15.50;;
57317;SDS011;43157;50.982;18.132;2022-12-18T03:34:57;46.20;;;14.30;;
57317;SDS011;43157;50.982;18.132;2022-12-18T03:37:23;47.10;;;14.40;;
57317;SDS011;43157;50.982;18.132;2022-12-18T03:39:50;42.10;;;11.90;;
57317;SDS011;43157;50.982;18.132;2022-12-18T03:47:30;39.60;;;12.90;;
57317;SDS011;43157;50.982;18.132;2022-12-18T03:55:03;49.30;;;11.10;;
57317;SDS011;43157;50.982;18.132;2022-12-18T03:57:29;30.10;;;7.10;;
57317;SDS011;43157;50.982;18.132;2022-12-18T03:59:57;48.90;;;14.10;;
57317;SDS011;43157;50.982;18.132;2022-12-18T04:02:25;52.50;;;12.60;;
57317;SDS011;43157;50.982;18.132;2022-12-18T04:04:55;48.90;;;12.30;;
57317;SDS011;43157;50.982;18.132;2022-12-18T04:07:23;48.50;;;12.40;;
57317;SDS011;43157;50.982;18.132;2022-12-18T04:09:49;48.60;;;14.80;;
57317;SDS011;43157;50.982;18.132;2022-12-18T04:12:17;50.10;;;13.10;;
57317;SDS011;43157;50.982;18.132;2022-12-18T04:14:43;42.90;;;11.50;;
57317;SDS011;43157;50.982;18.132;2022-12-18T04:17:09;49.00;;;15.90;;
57317;SDS011;43157;50.982;18.132;2022-12-18T04:19:35;49.90;;;14.40;;
57317;SDS011;43157;50.982;18.132;2022-12-18T04:22:01;39.00;;;11.10;;
57317;SDS011;43157;50.982;18.132;2022-12-18T04:24:27;69.90;;;20.50;;
57317;SDS011;43157;50.982;18.132;2022-12-18T04:26:53;76.80;;;20.70;;
57317;SDS011;43157;50.982;18.132;2022-12-18T04:29:19;57.60;;;15.00;;
57317;SDS011;43157;50.982;18.132;2022-12-18T04:31:46;44.60;;;12.90;;
57317;SDS011;43157;50.982;18.132;2022-12-18T04:34:12;41.40;;;11.40;;
57317;SDS011;43157;50.982;18.132;2022-12-18T04:36:38;39.00;;;11.60;;
57317;SDS011;43157;50.982;18.132;2022-12-18T04:39:04;32.70;;;10.60;;
57317;SDS011;43157;50.982;18.132;2022-12-18T04:41:30;34.80;;;9.50;;
57317;SDS011;43157;50.982;18.132;2022-12-18T04:43:56;45.00;;;11.60;;
57317;SDS011;43157;50.982;18.132;2022-12-18T04:46:22;39.20;;;11.70;;
57317;SDS011;43157;50.982;18.132;2022-12-18T04:48:49;47.30;;;12.40;;
57317;SDS011;43157;50.982;18.132;2022-12-18T04:51:15;38.40;;;11.40;;
57317;SDS011;43157;50.982;18.132;2022-12-18T04:53:41;41.40;;;11.00;;
57317;SDS011;43157;50.982;18.132;2022-12-18T04:56:11;42.50;;;10.50;;
57317;SDS011;43157;50.982;18.132;2022-12-18T04:58:37;45.70;;;12.50;;
57317;SDS011;43157;50.982;18.132;2022-12-18T05:01:03;45.00;;;12.30;;
57317;SDS011;43157;50.982;18.132;2022-12-18T05:03:29;50.50;;;13.70;;
57317;SDS011;43157;50.982;18.132;2022-12-18T05:05:55;38.70;;;9.90;;
57317;SDS011;43157;50.982;18.132;2022-12-18T05:08:21;40.20;;;12.00;;
57317;SDS011;43157;50.982;18.132;2022-12-18T05:10:47;46.70;;;11.40;;
57317;SDS011;43157;50.982;18.132;2022-12-18T05:13:14;43.30;;;12.10;;
57317;SDS011;43157;50.982;18.132;2022-12-18T05:15:40;28.40;;;8.90;;
57317;SDS011;43157;50.982;18.132;2022-12-18T05:18:07;38.10;;;12.40;;
57317;SDS011;43157;50.982;18.132;2022-12-18T05:20:33;34.60;;;9.90;;
57317;SDS011;43157;50.982;18.132;2022-12-18T05:22:59;42.40;;;13.60;;
57317;SDS011;43157;50.982;18.132;2022-12-18T05:25:25;40.90;;;12.30;;
57317;SDS011;43157;50.982;18.132;2022-12-18T05:27:51;46.30;;;12.40;;
57317;SDS011;43157;50.982;18.132;2022-12-18T05:30:17;45.60;;;12.00;;
57317;SDS011;43157;50.982;18.132;2022-12-18T05:32:43;54.10;;;15.70;;
57317;SDS011;43157;50.982;18.132;2022-12-18T05:35:10;48.40;;;16.00;;
57317;SDS011;43157;50.982;18.132;2022-12-18T05:37:36;62.60;;;17.60;;
57317;SDS011;43157;50.982;18.132;2022-12-18T05:40:04;52.70;;;17.10;;
57317;SDS011;43157;50.982;18.132;2022-12-18T05:42:30;55.00;;;14.50;;
57317;SDS011;43157;50.982;18.132;2022-12-18T05:44:56;48.50;;;14.90;;
57317;SDS011;43157;50.982;18.132;2022-12-18T05:47:22;44.40;;;15.20;;
57317;SDS011;43157;50.982;18.132;2022-12-18T05:49:49;44.30;;;12.80;;
57317;SDS011;43157;50.982;18.132;2022-12-18T05:52:15;32.10;;;9.80;;
57317;SDS011;43157;50.982;18.132;2022-12-18T05:54:41;47.90;;;12.80;;
57317;SDS011;43157;50.982;18.132;2022-12-18T05:57:07;36.30;;;11.30;;
57317;SDS011;43157;50.982;18.132;2022-12-18T05:59:33;37.90;;;11.00;;
57317;SDS011;43157;50.982;18.132;2022-12-18T06:01:59;36.00;;;8.60;;
57317;SDS011;43157;50.982;18.132;2022-12-18T06:04:26;42.90;;;13.10;;
57317;SDS011;43157;50.982;18.132;2022-12-18T06:06:52;41.00;;;11.80;;
57317;SDS011;43157;50.982;18.132;2022-12-18T06:09:18;35.00;;;11.90;;
57317;SDS011;43157;50.982;18.132;2022-12-18T06:11:45;37.80;;;12.90;;
57317;SDS011;43157;50.982;18.132;2022-12-18T06:14:11;39.50;;;11.90;;
57317;SDS011;43157;50.982;18.132;2022-12-18T06:16:37;39.80;;;11.20;;
57317;SDS011;43157;50.982;18.132;2022-12-18T06:19:04;41.60;;;12.20;;
57317;SDS011;43157;50.982;18.132;2022-12-18T06:21:30;45.50;;;11.90;;
57317;SDS011;43157;50.982;18.132;2022-12-18T06:23:56;40.60;;;11.70;;
57317;SDS011;43157;50.982;18.132;2022-12-18T06:26:22;41.90;;;12.70;;
57317;SDS011;43157;50.982;18.132;2022-12-18T06:28:48;39.40;;;12.00;;
57317;SDS011;43157;50.982;18.132;2022-12-18T06:31:14;40.50;;;12.50;;
57317;SDS011;43157;50.982;18.132;2022-12-18T06:33:41;45.60;;;11.90;;
57317;SDS011;43157;50.982;18.132;2022-12-18T06:36:08;47.70;;;13.50;;
57317;SDS011;43157;50.982;18.132;2022-12-18T06:38:34;44.70;;;12.70;;
57317;SDS011;43157;50.982;18.132;2022-12-18T06:41:00;38.30;;;9.90;;
57317;SDS011;43157;50.982;18.132;2022-12-18T06:43:26;50.60;;;14.00;;
57317;SDS011;43157;50.982;18.132;2022-12-18T06:45:57;44.90;;;13.80;;
57317;SDS011;43157;50.982;18.132;2022-12-18T06:48:23;51.50;;;15.20;;
57317;SDS011;43157;50.982;18.132;2022-12-18T06:50:49;40.20;;;12.60;;
57317;SDS011;43157;50.982;18.132;2022-12-18T06:53:15;53.80;;;17.80;;
57317;SDS011;43157;50.982;18.132;2022-12-18T06:55:43;47.90;;;15.20;;
57317;SDS011;43157;50.982;18.132;2022-12-18T06:58:09;54.70;;;17.50;;
57317;SDS011;43157;50.982;18.132;2022-12-18T07:00:35;56.00;;;15.10;;
57317;SDS011;43157;50.982;18.132;2022-12-18T07:03:01;55.00;;;16.10;;
57317;SDS011;43157;50.982;18.132;2022-12-18T07:05:27;32.70;;;10.10;;
57317;SDS011;43157;50.982;18.132;2022-12-18T07:07:53;51.60;;;15.70;;
57317;SDS011;43157;50.982;18.132;2022-12-18T07:10:19;49.30;;;15.70;;
57317;SDS011;43157;50.982;18.132;2022-12-18T07:12:46;44.20;;;13.40;;
57317;SDS011;43157;50.982;18.132;2022-12-18T07:15:12;60.80;;;17.80;;
57317;SDS011;43157;50.982;18.132;2022-12-18T07:17:38;56.70;;;14.50;;
57317;SDS011;43157;50.982;18.132;2022-12-18T07:20:04;62.00;;;17.30;;
57317;SDS011;43157;50.982;18.132;2022-12-18T07:22:30;49.00;;;15.10;;
57317;SDS011;43157;50.982;18.132;2022-12-18T07:24:56;55.50;;;17.10;;
57317;SDS011;43157;50.982;18.132;2022-12-18T07:27:22;51.60;;;14.30;;
57317;SDS011;43157;50.982;18.132;2022-12-18T07:29:48;52.20;;;15.90;;
57317;SDS011;43157;50.982;18.132;2022-12-18T07:32:15;49.80;;;15.00;;
57317;SDS011;43157;50.982;18.132;2022-12-18T07:34:41;61.90;;;17.30;;
57317;SDS011;43157;50.982;18.132;2022-12-18T07:37:07;69.20;;;18.90;;
57317;SDS011;43157;50.982;18.132;2022-12-18T07:39:33;70.00;;;19.80;;
57317;SDS011;43157;50.982;18.132;2022-12-18T07:41:59;62.20;;;18.30;;
57317;SDS011;43157;50.982;18.132;2022-12-18T07:44:43;70.80;;;21.10;;
57317;SDS011;43157;50.982;18.132;2022-12-18T07:47:10;56.90;;;17.40;;
57317;SDS011;43157;50.982;18.132;2022-12-18T07:49:36;46.10;;;13.10;;
57317;SDS011;43157;50.982;18.132;2022-12-18T07:52:02;64.70;;;18.60;;
57317;SDS011;43157;50.982;18.132;2022-12-18T07:54:28;53.40;;;15.10;;
57317;SDS011;43157;50.982;18.132;2022-12-18T07:56:54;52.90;;;15.90;;
57317;SDS011;43157;50.982;18.132;2022-12-18T07:59:20;59.00;;;16.50;;
57317;SDS011;43157;50.982;18.132;2022-12-18T08:01:46;53.40;;;15.50;;
57317;SDS011;43157;50.982;18.132;2022-12-18T08:04:12;63.70;;;19.50;;
57317;SDS011;43157;50.982;18.132;2022-12-18T08:06:39;63.50;;;17.50;;
57317;SDS011;43157;50.982;18.132;2022-12-18T08:09:05;69.10;;;18.20;;
57317;SDS011;43157;50.982;18.132;2022-12-18T08:11:31;47.70;;;13.80;;
57317;SDS011;43157;50.982;18.132;2022-12-18T08:13:57;59.70;;;16.00;;
57317;SDS011;43157;50.982;18.132;2022-12-18T08:16:25;61.20;;;17.40;;
57317;SDS011;43157;50.982;18.132;2022-12-18T08:18:52;56.00;;;16.40;;
57317;SDS011;43157;50.982;18.132;2022-12-18T08:21:19;59.10;;;16.50;;
57317;SDS011;43157;50.982;18.132;2022-12-18T08:23:46;53.20;;;16.30;;
57317;SDS011;43157;50.982;18.132;2022-12-18T08:26:12;69.40;;;21.60;;
57317;SDS011;43157;50.982;18.132;2022-12-18T08:28:39;73.60;;;22.30;;
57317;SDS011;43157;50.982;18.132;2022-12-18T08:31:05;78.90;;;20.70;;
57317;SDS011;43157;50.982;18.132;2022-12-18T08:33:31;64.20;;;18.60;;
57317;SDS011;43157;50.982;18.132;2022-12-18T08:36:00;50.40;;;15.20;;
57317;SDS011;43157;50.982;18.132;2022-12-18T08:38:26;35.60;;;12.10;;
57317;SDS011;43157;50.982;18.132;2022-12-18T08:41:02;53.50;;;14.50;;
57317;SDS011;43157;50.982;18.132;2022-12-18T08:43:27;60.20;;;18.40;;
57317;SDS011;43157;50.982;18.132;2022-12-18T08:46:12;53.70;;;15.70;;
57317;SDS011;43157;50.982;18.132;2022-12-18T08:48:38;51.30;;;16.10;;
57317;SDS011;43157;50.982;18.132;2022-12-18T08:51:04;55.50;;;16.10;;
57317;SDS011;43157;50.982;18.132;2022-12-18T08:53:30;50.70;;;16.80;;
57317;SDS011;43157;50.982;18.132;2022-12-18T08:55:58;56.10;;;18.00;;
57317;SDS011;43157;50.982;18.132;2022-12-18T08:58:24;55.00;;;17.80;;
57317;SDS011;43157;50.982;18.132;2022-12-18T09:00:50;52.20;;;16.30;;
57317;SDS011;43157;50.982;18.132;2022-12-18T09:03:17;55.60;;;17.70;;
57317;SDS011;43157;50.982;18.132;2022-12-18T09:05:43;62.70;;;20.40;;
57317;SDS011;43157;50.982;18.132;2022-12-18T09:08:10;53.50;;;17.90;;
57317;SDS011;43157;50.982;18.132;2022-12-18T09:10:44;54.50;;;18.60;;
57317;SDS011;43157;50.982;18.132;2022-12-18T09:13:10;65.10;;;18.10;;
57317;SDS011;43157;50.982;18.132;2022-12-18T09:15:40;66.20;;;19.70;;
57317;SDS011;43157;50.982;18.132;2022-12-18T09:18:06;71.80;;;22.80;;
57317;SDS011;43157;50.982;18.132;2022-12-18T09:20:32;55.50;;;17.30;;
57317;SDS011;43157;50.982;18.132;2022-12-18T09:22:58;65.00;;;18.50;;
57317;SDS011;43157;50.982;18.132;2022-12-18T09:25:24;57.50;;;18.00;;
57317;SDS011;43157;50.982;18.132;2022-12-18T09:27:50;43.20;;;15.00;;
57317;SDS011;43157;50.982;18.132;2022-12-18T09:30:18;49.90;;;15.10;;
57317;SDS011;43157;50.982;18.132;2022-12-18T09:32:44;57.90;;;14.20;;
57317;SDS011;43157;50.982;18.132;2022-12-18T09:35:10;60.60;;;18.70;;
57317;SDS011;43157;50.982;18.132;2022-12-18T09:37:36;46.00;;;13.90;;
57317;SDS011;43157;50.982;18.132;2022-12-18T09:40:03;45.80;;;14.50;;
57317;SDS011;43157;50.982;18.132;2022-12-18T09:42:29;56.20;;;16.50;;
57317;SDS011;43157;50.982;18.132;2022-12-18T09:44:57;60.30;;;19.30;;
57317;SDS011;43157;50.982;18.132;2022-12-18T09:47:30;60.60;;;19.90;;
57317;SDS011;43157;50.982;18.132;2022-12-18T09:49:59;87.70;;;28.20;;
57317;SDS011;43157;50.982;18.132;2022-12-18T09:52:27;63.80;;;19.60;;
57317;SDS011;43157;50.982;18.132;2022-12-18T09:54:57;65.40;;;19.90;;
57317;SDS011;43157;50.982;18.132;2022-12-18T09:57:24;75.00;;;22.20;;
57317;SDS011;43157;50.982;18.132;2022-12-18T09:59:56;46.10;;;15.10;;
57317;SDS011;43157;50.982;18.132;2022-12-18T10:02:25;56.00;;;17.40;;
57317;SDS011;43157;50.982;18.132;2022-12-18T10:07:33;52.00;;;17.80;;
57317;SDS011;43157;50.982;18.132;2022-12-18T10:10:13;48.90;;;17.70;;
57317;SDS011;43157;50.982;18.132;2022-12-18T10:12:49;53.00;;;17.50;;
57317;SDS011;43157;50.982;18.132;2022-12-18T10:15:22;44.30;;;14.90;;
57317;SDS011;43157;50.982;18.132;2022-12-18T10:18:02;44.20;;;14.60;;
57317;SDS011;43157;50.982;18.132;2022-12-18T10:20:33;56.60;;;16.40;;
57317;SDS011;43157;50.982;18.132;2022-12-18T10:28:21;51.70;;;14.10;;
57317;SDS011;43157;50.982;18.132;2022-12-18T10:30:48;89.00;;;23.70;;
57317;SDS011;43157;50.982;18.132;2022-12-18T10:33:16;38.80;;;13.10;;
57317;SDS011;43157;50.982;18.132;2022-12-18T10:35:42;33.10;;;10.10;;
57317;SDS011;43157;50.982;18.132;2022-12-18T10:40:56;59.10;;;16.80;;
57317;SDS011;43157;50.982;18.132;2022-12-18T10:46:01;68.00;;;21.70;;
57317;SDS011;43157;50.982;18.132;2022-12-18T10:48:27;75.50;;;23.90;;
57317;SDS011;43157;50.982;18.132;2022-12-18T10:50:53;59.80;;;18.10;;
57317;SDS011;43157;50.982;18.132;2022-12-18T10:53:20;89.70;;;25.80;;
57317;SDS011;43157;50.982;18.132;2022-12-18T10:55:47;43.10;;;12.30;;
57317;SDS011;43157;50.982;18.132;2022-12-18T10:58:24;39.30;;;11.40;;
57317;SDS011;43157;50.982;18.132;2022-12-18T11:01:04;66.50;;;22.40;;
57317;SDS011;43157;50.982;18.132;2022-12-18T11:03:32;46.80;;;17.50;;
57317;SDS011;43157;50.982;18.132;2022-12-18T11:06:02;57.20;;;17.00;;
57317;SDS011;43157;50.982;18.132;2022-12-18T11:08:28;50.10;;;17.90;;
57317;SDS011;43157;50.982;18.132;2022-12-18T11:10:54;54.70;;;18.60;;
57317;SDS011;43157;50.982;18.132;2022-12-18T11:13:21;49.50;;;15.80;;
57317;SDS011;43157;50.982;18.132;2022-12-18T11:15:47;59.20;;;20.50;;
57317;SDS011;43157;50.982;18.132;2022-12-18T11:18:22;64.30;;;21.00;;
57317;SDS011;43157;50.982;18.132;2022-12-18T11:20:57;44.40;;;14.00;;
57317;SDS011;43157;50.982;18.132;2022-12-18T11:23:24;53.10;;;15.60;;
57317;SDS011;43157;50.982;18.132;2022-12-18T11:26:01;63.00;;;19.60;;
57317;SDS011;43157;50.982;18.132;2022-12-18T11:28:29;60.10;;;19.00;;
57317;SDS011;43157;50.982;18.132;2022-12-18T11:33:40;64.90;;;21.60;;
57317;SDS011;43157;50.982;18.132;2022-12-18T11:36:08;77.20;;;21.90;;
57317;SDS011;43157;50.982;18.132;2022-12-18T11:38:38;45.90;;;13.30;;
57317;SDS011;43157;50.982;18.132;2022-12-18T11:44:08;70.70;;;23.80;;
57317;SDS011;43157;50.982;18.132;2022-12-18T11:46:36;73.70;;;24.30;;
57317;SDS011;43157;50.982;18.132;2022-12-18T11:49:03;60.00;;;20.80;;
57317;SDS011;43157;50.982;18.132;2022-12-18T11:51:34;51.50;;;16.00;;
57317;SDS011;43157;50.982;18.132;2022-12-18T11:54:04;58.70;;;19.10;;
57317;SDS011;43157;50.982;18.132;2022-12-18T11:56:35;57.70;;;18.90;;
57317;SDS011;43157;50.982;18.132;2022-12-18T12:01:49;71.80;;;23.30;;
57317;SDS011;43157;50.982;18.132;2022-12-18T12:09:19;81.00;;;26.30;;
57317;SDS011;43157;50.982;18.132;2022-12-18T12:17:06;71.30;;;21.80;;
57317;SDS011;43157;50.982;18.132;2022-12-18T12:19:51;82.60;;;25.30;;
57317;SDS011;43157;50.982;18.132;2022-12-18T12:22:38;82.10;;;24.20;;
57317;SDS011;43157;50.982;18.132;2022-12-18T12:27:42;76.10;;;23.20;;
57317;SDS011;43157;50.982;18.132;2022-12-18T12:30:20;79.40;;;19.50;;
57317;SDS011;43157;50.982;18.132;2022-12-18T12:38:04;105.80;;;34.40;;
57317;SDS011;43157;50.982;18.132;2022-12-18T12:40:31;89.90;;;26.00;;
57317;SDS011;43157;50.982;18.132;2022-12-18T12:43:01;87.90;;;25.20;;
57317;SDS011;43157;50.982;18.132;2022-12-18T12:45:42;92.30;;;24.00;;
57317;SDS011;43157;50.982;18.132;2022-12-18T12:48:13;279.30;;;90.30;;
57317;SDS011;43157;50.982;18.132;2022-12-18T12:50:41;72.50;;;22.90;;
57317;SDS011;43157;50.982;18.132;2022-12-18T12:53:08;54.00;;;16.60;;
57317;SDS011;43157;50.982;18.132;2022-12-18T12:55:34;99.60;;;34.70;;
57317;SDS011;43157;50.982;18.132;2022-12-18T12:58:08;102.40;;;30.50;;
57317;SDS011;43157;50.982;18.132;2022-12-18T13:00:39;60.00;;;20.10;;
57317;SDS011;43157;50.982;18.132;2022-12-18T13:03:08;90.10;;;27.90;;
57317;SDS011;43157;50.982;18.132;2022-12-18T13:05:43;97.80;;;27.30;;
57317;SDS011;43157;50.982;18.132;2022-12-18T13:08:22;74.40;;;19.90;;
57317;SDS011;43157;50.982;18.132;2022-12-18T13:10:48;82.10;;;23.30;;
57317;SDS011;43157;50.982;18.132;2022-12-18T13:13:14;105.40;;;33.20;;
57317;SDS011;43157;50.982;18.132;2022-12-18T13:25:48;80.40;;;24.80;;
57317;SDS011;43157;50.982;18.132;2022-12-18T13:28:15;63.90;;;16.40;;
57317;SDS011;43157;50.982;18.132;2022-12-18T13:30:42;70.60;;;20.00;;
57317;SDS011;43157;50.982;18.132;2022-12-18T13:45:45;70.80;;;22.30;;
57317;SDS011;43157;50.982;18.132;2022-12-18T13:48:22;61.40;;;17.30;;
57317;SDS011;43157;50.982;18.132;2022-12-18T13:50:49;91.00;;;24.40;;
57317;SDS011;43157;50.982;18.132;2022-12-18T13:53:21;52.80;;;14.90;;
57317;SDS011;43157;50.982;18.132;2022-12-18T13:55:48;82.30;;;31.20;;
57317;SDS011;43157;50.982;18.132;2022-12-18T13:58:14;47.40;;;17.50;;
57317;SDS011;43157;50.982;18.132;2022-12-18T14:00:41;59.50;;;19.10;;
57317;SDS011;43157;50.982;18.132;2022-12-18T14:03:23;48.80;;;13.80;;
57317;SDS011;43157;50.982;18.132;2022-12-18T14:06:05;73.50;;;23.00;;
57317;SDS011;43157;50.982;18.132;2022-12-18T14:08:33;66.80;;;22.50;;
57317;SDS011;43157;50.982;18.132;2022-12-18T14:11:00;64.90;;;19.20;;
57317;SDS011;43157;50.982;18.132;2022-12-18T14:13:29;82.60;;;25.70;;
57317;SDS011;43157;50.982;18.132;2022-12-18T14:15:55;81.80;;;28.00;;
57317;SDS011;43157;50.982;18.132;2022-12-18T14:20:49;68.20;;;22.10;;
57317;SDS011;43157;50.982;18.132;2022-12-18T14:23:28;68.60;;;21.00;;
57317;SDS011;43157;50.982;18.132;2022-12-18T14:25:54;87.10;;;31.10;;
57317;SDS011;43157;50.982;18.132;2022-12-18T14:28:20;94.10;;;34.30;;
57317;SDS011;43157;50.982;18.132;2022-12-18T14:30:47;88.70;;;33.90;;
57317;SDS011;43157;50.982;18.132;2022-12-18T14:33:17;126.70;;;51.60;;
57317;SDS011;43157;50.982;18.132;2022-12-18T14:35:59;123.30;;;45.40;;
57317;SDS011;43157;50.982;18.132;2022-12-18T14:40:57;217.30;;;72.70;;
57317;SDS011;43157;50.982;18.132;2022-12-18T14:43:24;143.10;;;51.10;;
57317;SDS011;43157;50.982;18.132;2022-12-18T14:45:51;198.90;;;69.00;;
57317;SDS011;43157;50.982;18.132;2022-12-18T14:48:18;154.70;;;61.20;;
57317;SDS011;43157;50.982;18.132;2022-12-18T14:50:44;110.70;;;37.50;;
57317;SDS011;43157;50.982;18.132;2022-12-18T14:58:39;78.30;;;25.30;;
57317;SDS011;43157;50.982;18.132;2022-12-18T15:01:09;78.20;;;20.60;;
57317;SDS011;43157;50.982;18.132;2022-12-18T15:09:04;84.20;;;31.50;;
57317;SDS011;43157;50.982;18.132;2022-12-18T15:14:23;110.60;;;45.90;;
57317;SDS011;43157;50.982;18.132;2022-12-18T15:16:55;139.00;;;49.90;;
57317;SDS011;43157;50.982;18.132;2022-12-18T15:19:22;279.30;;;88.00;;
57317;SDS011;43157;50.982;18.132;2022-12-18T15:21:50;266.90;;;86.00;;
57317;SDS011;43157;50.982;18.132;2022-12-18T15:24:17;170.50;;;58.90;;
57317;SDS011;43157;50.982;18.132;2022-12-18T15:26:43;161.20;;;68.90;;
57317;SDS011;43157;50.982;18.132;2022-12-18T15:29:20;117.70;;;46.10;;
57317;SDS011;43157;50.982;18.132;2022-12-18T15:32:05;73.10;;;27.80;;
57317;SDS011;43157;50.982;18.132;2022-12-18T15:34:31;70.60;;;25.00;;
57317;SDS011;43157;50.982;18.132;2022-12-18T15:36:57;94.60;;;34.60;;
57317;SDS011;43157;50.982;18.132;2022-12-18T15:39:23;89.70;;;30.40;;
57317;SDS011;43157;50.982;18.132;2022-12-18T15:41:49;131.90;;;41.60;;
57317;SDS011;43157;50.982;18.132;2022-12-18T15:44:34;226.20;;;62.20;;
57317;SDS011;43157;50.982;18.132;2022-12-18T15:47:00;228.70;;;64.40;;
57317;SDS011;43157;50.982;18.132;2022-12-18T15:49:26;163.50;;;48.30;;
57317;SDS011;43157;50.982;18.132;2022-12-18T15:51:53;129.60;;;40.60;;
57317;SDS011;43157;50.982;18.132;2022-12-18T15:54:19;115.10;;;36.40;;
57317;SDS011;43157;50.982;18.132;2022-12-18T15:57:08;87.60;;;26.80;;
57317;SDS011;43157;50.982;18.132;2022-12-18T15:59:49;52.80;;;15.40;;
57317;SDS011;43157;50.982;18.132;2022-12-18T16:02:16;94.90;;;29.10;;
57317;SDS011;43157;50.982;18.132;2022-12-18T16:04:42;96.70;;;29.60;;